N60SB KPIE-KLAL
Flight info
| Callsign | N60SB |
|---|---|
| Flight time | 0h 30m |
| Altitude | 13000 |
| Route | KOCF |
| Aircraft | C130/M-SDE2E3FGRY/H |
Departure
| Time | 2026-04-26 20:47 |
|---|---|
| Airport | St. Petersburg Clearwater International Airport (KPIE) |
Arrival
| Time | 2026-04-26 21:17 |
|---|---|
| Airport | Lakeland Linder International Airport (KLAL) |
| Time | Latitude | Longitude | Altitude | Speed | Heading |
|---|---|---|---|---|---|
| 2026-04-26 20:29 | 27.91124 | -82.69576 | 26 ft | 0 kts | 43° |
| 2026-04-26 20:39 | 27.91125 | -82.69574 | 22 ft | 1 kts | 57° |
| 2026-04-26 20:39 | 27.91126 | -82.69569 | 22 ft | 1 kts | 96° |
| 2026-04-26 20:39 | 27.91103 | -82.69553 | 22 ft | 6 kts | 163° |
| 2026-04-26 20:39 | 27.91047 | -82.69543 | 22 ft | 9 kts | 174° |
| 2026-04-26 20:40 | 27.90993 | -82.69540 | 24 ft | 7 kts | 178° |
| 2026-04-26 20:40 | 27.90950 | -82.69538 | 22 ft | 6 kts | 176° |
| 2026-04-26 20:40 | 27.90896 | -82.69535 | 23 ft | 10 kts | 177° |
| 2026-04-26 20:40 | 27.90846 | -82.69525 | 24 ft | 7 kts | 148° |
| 2026-04-26 20:41 | 27.90827 | -82.69468 | 23 ft | 9 kts | 89° |
| 2026-04-26 20:41 | 27.90829 | -82.69371 | 23 ft | 16 kts | 89° |
| 2026-04-26 20:41 | 27.90834 | -82.69229 | 22 ft | 18 kts | 90° |
| 2026-04-26 20:41 | 27.90836 | -82.69100 | 22 ft | 15 kts | 89° |
| 2026-04-26 20:42 | 27.90839 | -82.68996 | 22 ft | 9 kts | 95° |
| 2026-04-26 20:42 | 27.90819 | -82.68970 | 24 ft | 6 kts | 150° |
| 2026-04-26 20:42 | 27.90763 | -82.68953 | 24 ft | 11 kts | 171° |
| 2026-04-26 20:42 | 27.90678 | -82.68938 | 25 ft | 14 kts | 172° |
| 2026-04-26 20:43 | 27.90579 | -82.68922 | 22 ft | 15 kts | 169° |
| 2026-04-26 20:43 | 27.90472 | -82.68904 | 24 ft | 17 kts | 172° |
| 2026-04-26 20:43 | 27.90355 | -82.68883 | 22 ft | 17 kts | 171° |
| 2026-04-26 20:43 | 27.90239 | -82.68861 | 22 ft | 13 kts | 173° |
| 2026-04-26 20:44 | 27.90183 | -82.68858 | 23 ft | 17 kts | 180° |
| 2026-04-26 20:44 | 27.90060 | -82.68862 | 19 ft | 18 kts | 181° |
| 2026-04-26 20:44 | 27.89938 | -82.68863 | 20 ft | 16 kts | 174° |
| 2026-04-26 20:44 | 27.89829 | -82.68844 | 23 ft | 16 kts | 172° |
| 2026-04-26 20:45 | 27.89728 | -82.68822 | 22 ft | 11 kts | 156° |
| 2026-04-26 20:45 | 27.89697 | -82.68774 | 23 ft | 5 kts | 99° |
| 2026-04-26 20:45 | 27.89698 | -82.68741 | 21 ft | 0 kts | 83° |
| 2026-04-26 20:45 | 27.89698 | -82.68737 | 20 ft | 5 kts | 82° |
| 2026-04-26 20:46 | 27.89708 | -82.68658 | 18 ft | 13 kts | 82° |
| 2026-04-26 20:46 | 27.89728 | -82.68623 | 19 ft | 7 kts | 25° |
| 2026-04-26 20:46 | 27.89794 | -82.68628 | 17 ft | 26 kts | 349° |
| 2026-04-26 20:46 | 27.90333 | -82.68724 | 25 ft | 126 kts | 351° |
| 2026-04-26 20:47 | 27.91396 | -82.68877 | 252 ft | 176 kts | 353° |
| 2026-04-26 20:47 | 27.92237 | -82.68993 | 676 ft | 190 kts | 352° |
| 2026-04-26 20:47 | 27.94139 | -82.69214 | 1432 ft | 221 kts | 351° |
| 2026-04-26 20:47 | 27.95485 | -82.68439 | 1640 ft | 263 kts | 81° |
| 2026-04-26 20:48 | 27.94448 | -82.66755 | 1207 ft | 291 kts | 155° |
| 2026-04-26 20:48 | 27.92501 | -82.66184 | 1508 ft | 284 kts | 175° |
| 2026-04-26 20:48 | 27.90622 | -82.65918 | 1789 ft | 271 kts | 177° |
| 2026-04-26 20:48 | 27.88757 | -82.65695 | 1870 ft | 270 kts | 179° |
| 2026-04-26 20:49 | 27.86865 | -82.65575 | 1799 ft | 273 kts | 181° |
| 2026-04-26 20:49 | 27.84972 | -82.65494 | 1856 ft | 272 kts | 180° |
| 2026-04-26 20:49 | 27.83073 | -82.65356 | 1752 ft | 275 kts | 179° |
| 2026-04-26 20:49 | 27.81235 | -82.65220 | 1798 ft | 251 kts | 180° |
| 2026-04-26 20:50 | 27.79541 | -82.65137 | 1787 ft | 241 kts | 182° |
| 2026-04-26 20:50 | 27.77830 | -82.65052 | 2081 ft | 247 kts | 181° |
| 2026-04-26 20:50 | 27.76124 | -82.64860 | 2434 ft | 251 kts | 175° |
| 2026-04-26 20:50 | 27.74391 | -82.64581 | 2893 ft | 255 kts | 176° |
| 2026-04-26 20:51 | 27.72654 | -82.64054 | 2668 ft | 257 kts | 158° |
| 2026-04-26 20:51 | 27.71171 | -82.62926 | 2857 ft | 261 kts | 141° |
| 2026-04-26 20:51 | 27.70002 | -82.61335 | 3300 ft | 266 kts | 122° |
| 2026-04-26 20:51 | 27.69397 | -82.59399 | 4151 ft | 262 kts | 94° |
| 2026-04-26 20:52 | 27.69749 | -82.57438 | 5006 ft | 255 kts | 59° |
| 2026-04-26 20:52 | 27.70893 | -82.55963 | 5782 ft | 254 kts | 38° |
| 2026-04-26 20:52 | 27.72282 | -82.54645 | 5973 ft | 263 kts | 36° |
| 2026-04-26 20:52 | 27.73667 | -82.53280 | 5995 ft | 267 kts | 46° |
| 2026-04-26 20:53 | 27.74736 | -82.51521 | 5994 ft | 283 kts | 56° |
| 2026-04-26 20:53 | 27.75800 | -82.49554 | 5990 ft | 303 kts | 56° |
| 2026-04-26 20:53 | 27.76924 | -82.47488 | 5992 ft | 311 kts | 56° |
| 2026-04-26 20:53 | 27.77989 | -82.45517 | 5971 ft | 285 kts | 56° |
| 2026-04-26 20:54 | 27.79020 | -82.43608 | 5986 ft | 286 kts | 56° |
| 2026-04-26 20:54 | 27.80043 | -82.41687 | 5980 ft | 284 kts | 56° |
| 2026-04-26 20:54 | 27.81067 | -82.39776 | 5994 ft | 285 kts | 56° |
| 2026-04-26 20:54 | 27.82105 | -82.37848 | 5969 ft | 287 kts | 56° |
| 2026-04-26 20:55 | 27.83145 | -82.35940 | 5989 ft | 285 kts | 56° |
| 2026-04-26 20:55 | 27.84189 | -82.34031 | 5978 ft | 288 kts | 56° |
| 2026-04-26 20:55 | 27.85290 | -82.32162 | 5981 ft | 284 kts | 49° |
| 2026-04-26 20:55 | 27.86661 | -82.30557 | 5982 ft | 284 kts | 39° |
| 2026-04-26 20:56 | 27.88153 | -82.29105 | 5976 ft | 282 kts | 38° |
| 2026-04-26 20:56 | 27.89655 | -82.27672 | 5971 ft | 283 kts | 37° |
| 2026-04-26 20:56 | 27.91158 | -82.26240 | 5977 ft | 281 kts | 38° |
| 2026-04-26 20:56 | 27.92659 | -82.24810 | 5828 ft | 283 kts | 38° |
| 2026-04-26 20:57 | 27.94121 | -82.23414 | 5201 ft | 268 kts | 37° |
| 2026-04-26 20:57 | 27.95523 | -82.22074 | 4089 ft | 270 kts | 38° |
| 2026-04-26 20:57 | 27.96995 | -82.20675 | 2713 ft | 282 kts | 37° |
| 2026-04-26 20:57 | 27.98475 | -82.19265 | 2115 ft | 265 kts | 37° |
| 2026-04-26 20:58 | 27.99779 | -82.18012 | 2099 ft | 227 kts | 37° |
| 2026-04-26 20:58 | 28.00890 | -82.16941 | 2160 ft | 199 kts | 37° |
| 2026-04-26 20:58 | 28.01944 | -82.15933 | 2165 ft | 197 kts | 36° |
| 2026-04-26 20:58 | 28.02980 | -82.14946 | 2175 ft | 197 kts | 36° |
| 2026-04-26 20:59 | 28.04026 | -82.13955 | 2158 ft | 195 kts | 38° |
| 2026-04-26 20:59 | 28.05075 | -82.12956 | 2179 ft | 198 kts | 37° |
| 2026-04-26 20:59 | 28.06097 | -82.11978 | 2192 ft | 183 kts | 36° |
| 2026-04-26 20:59 | 28.07035 | -82.11076 | 2201 ft | 171 kts | 37° |
| 2026-04-26 21:00 | 28.07973 | -82.10183 | 2192 ft | 175 kts | 36° |
| 2026-04-26 21:00 | 28.08909 | -82.09291 | 2198 ft | 176 kts | 36° |
| 2026-04-26 21:00 | 28.09837 | -82.08401 | 2194 ft | 171 kts | 36° |
| 2026-04-26 21:00 | 28.10765 | -82.07516 | 2192 ft | 178 kts | 35° |
| 2026-04-26 21:01 | 28.11713 | -82.06610 | 2201 ft | 180 kts | 36° |
| 2026-04-26 21:01 | 28.12655 | -82.05710 | 2237 ft | 174 kts | 36° |
| 2026-04-26 21:01 | 28.13592 | -82.04814 | 2193 ft | 177 kts | 36° |
| 2026-04-26 21:01 | 28.14526 | -82.03920 | 2225 ft | 174 kts | 36° |
| 2026-04-26 21:02 | 28.15448 | -82.03037 | 2205 ft | 174 kts | 36° |
| 2026-04-26 21:02 | 28.16366 | -82.02156 | 2204 ft | 174 kts | 36° |
| 2026-04-26 21:02 | 28.17302 | -82.01260 | 2233 ft | 175 kts | 35° |
| 2026-04-26 21:02 | 28.18235 | -82.00367 | 2225 ft | 174 kts | 36° |
| 2026-04-26 21:03 | 28.19156 | -81.99482 | 2209 ft | 174 kts | 37° |
| 2026-04-26 21:03 | 28.20079 | -81.98599 | 2201 ft | 174 kts | 36° |
| 2026-04-26 21:03 | 28.21012 | -81.97706 | 2216 ft | 176 kts | 37° |
| 2026-04-26 21:03 | 28.21946 | -81.96812 | 2213 ft | 176 kts | 36° |
| 2026-04-26 21:04 | 28.22878 | -81.95917 | 2222 ft | 176 kts | 36° |
| 2026-04-26 21:04 | 28.23816 | -81.95017 | 2206 ft | 173 kts | 37° |
| 2026-04-26 21:04 | 28.24744 | -81.94127 | 2200 ft | 174 kts | 37° |
| 2026-04-26 21:04 | 28.25665 | -81.93218 | 2203 ft | 179 kts | 43° |
| 2026-04-26 21:05 | 28.26245 | -81.91983 | 2208 ft | 184 kts | 81° |
| 2026-04-26 21:05 | 28.25972 | -81.90619 | 2210 ft | 187 kts | 122° |
| 2026-04-26 21:05 | 28.25141 | -81.89489 | 2207 ft | 185 kts | 138° |
| 2026-04-26 21:05 | 28.24196 | -81.88537 | 2202 ft | 180 kts | 143° |
| 2026-04-26 21:06 | 28.23236 | -81.87628 | 2203 ft | 180 kts | 143° |
| 2026-04-26 21:06 | 28.22269 | -81.86703 | 2198 ft | 180 kts | 142° |
| 2026-04-26 21:06 | 28.21336 | -81.85781 | 2201 ft | 179 kts | 141° |
| 2026-04-26 21:06 | 28.20412 | -81.84846 | 2199 ft | 178 kts | 141° |
| 2026-04-26 21:07 | 28.19499 | -81.83901 | 2195 ft | 178 kts | 140° |
| 2026-04-26 21:07 | 28.18590 | -81.82949 | 2199 ft | 178 kts | 139° |
| 2026-04-26 21:07 | 28.17686 | -81.81994 | 2195 ft | 178 kts | 140° |
| 2026-04-26 21:07 | 28.16655 | -81.81260 | 2185 ft | 173 kts | 169° |
| 2026-04-26 21:08 | 28.15474 | -81.81295 | 2204 ft | 171 kts | 199° |
| 2026-04-26 21:08 | 28.14389 | -81.81731 | 2201 ft | 168 kts | 207° |
| 2026-04-26 21:08 | 28.13331 | -81.82266 | 2183 ft | 165 kts | 209° |
| 2026-04-26 21:08 | 28.12314 | -81.82858 | 2187 ft | 162 kts | 220° |
| 2026-04-26 21:09 | 28.11591 | -81.83789 | 2230 ft | 157 kts | 244° |
| 2026-04-26 21:09 | 28.11116 | -81.84879 | 2196 ft | 153 kts | 249° |
| 2026-04-26 21:09 | 28.10717 | -81.85958 | 2178 ft | 145 kts | 250° |
| 2026-04-26 21:09 | 28.10336 | -81.86992 | 2211 ft | 138 kts | 250° |
| 2026-04-26 21:10 | 28.09911 | -81.87956 | 2329 ft | 139 kts | 248° |
| 2026-04-26 21:10 | 28.09504 | -81.88967 | 2229 ft | 142 kts | 249° |
| 2026-04-26 21:10 | 28.09112 | -81.89962 | 1928 ft | 139 kts | 249° |
| 2026-04-26 21:10 | 28.08702 | -81.91010 | 1958 ft | 159 kts | 248° |
| 2026-04-26 21:11 | 28.08232 | -81.92058 | 1738 ft | 139 kts | 257° |
| 2026-04-26 21:11 | 28.08387 | -81.93107 | 1807 ft | 150 kts | 298° |
| 2026-04-26 21:11 | 28.08885 | -81.94120 | 1807 ft | 136 kts | 285° |
| 2026-04-26 21:11 | 28.08905 | -81.95096 | 1688 ft | 115 kts | 262° |
| 2026-04-26 21:12 | 28.08702 | -81.96020 | 1686 ft | 137 kts | 253° |
| 2026-04-26 21:12 | 28.08213 | -81.96991 | 1803 ft | 142 kts | 239° |
| 2026-04-26 21:12 | 28.07619 | -81.97844 | 1699 ft | 138 kts | 236° |
| 2026-04-26 21:12 | 28.07045 | -81.98691 | 1681 ft | 125 kts | 238° |
| 2026-04-26 21:13 | 28.06525 | -81.99460 | 1730 ft | 133 kts | 237° |
| 2026-04-26 21:13 | 28.05949 | -82.00291 | 1882 ft | 135 kts | 235° |
| 2026-04-26 21:13 | 28.05346 | -82.01101 | 1674 ft | 139 kts | 235° |
| 2026-04-26 21:13 | 28.04638 | -82.01778 | 1498 ft | 127 kts | 214° |
| 2026-04-26 21:14 | 28.03783 | -82.02002 | 1426 ft | 141 kts | 183° |
| 2026-04-26 21:14 | 28.02828 | -82.01665 | 1561 ft | 151 kts | 135° |
| 2026-04-26 21:14 | 28.02557 | -82.00485 | 1499 ft | 163 kts | 92° |
| 2026-04-26 21:14 | 28.02512 | -81.99202 | 1504 ft | 166 kts | 92° |
| 2026-04-26 21:15 | 28.02221 | -81.98001 | 1545 ft | 160 kts | 134° |
| 2026-04-26 21:15 | 28.01295 | -81.97465 | 1469 ft | 143 kts | 171° |
| 2026-04-26 21:15 | 28.00391 | -81.97260 | 1403 ft | 129 kts | 177° |
| 2026-04-26 21:15 | 27.99537 | -81.97267 | 1209 ft | 115 kts | 213° |
| 2026-04-26 21:16 | 27.99059 | -81.97934 | 923 ft | 108 kts | 251° |
| 2026-04-26 21:16 | 27.98928 | -81.98714 | 646 ft | 101 kts | 270° |
| 2026-04-26 21:16 | 27.98923 | -81.99575 | 465 ft | 117 kts | 272° |
| 2026-04-26 21:16 | 27.98934 | -82.00506 | 247 ft | 113 kts | 272° |
| 2026-04-26 21:17 | 27.98926 | -82.01317 | 160 ft | 89 kts | 271° |
| 2026-04-26 21:17 | 27.98926 | -82.01865 | 147 ft | 52 kts | 269° |
| 2026-04-26 21:17 | 27.98925 | -82.02183 | 144 ft | 22 kts | 271° |
| 2026-04-26 21:17 | 27.98916 | -82.02282 | 145 ft | 11 kts | 216° |
| 2026-04-26 21:18 | 27.98855 | -82.02293 | 143 ft | 9 kts | 180° |
| 2026-04-26 21:18 | 27.98797 | -82.02294 | 142 ft | 7 kts | 180° |
| 2026-04-26 21:18 | 27.98766 | -82.02294 | 141 ft | 0 kts | 181° |
| 2026-04-26 21:18 | 27.98763 | -82.02294 | 141 ft | 2 kts | 181° |
| 2026-04-26 21:19 | 27.98755 | -82.02294 | 141 ft | 0 kts | 181° |
| 2026-04-26 21:19 | 27.98739 | -82.02285 | 141 ft | 8 kts | 128° |
| 2026-04-26 21:19 | 27.98731 | -82.02221 | 143 ft | 8 kts | 90° |
| 2026-04-26 21:20 | 27.98732 | -82.02156 | 145 ft | 11 kts | 90° |
| 2026-04-26 21:20 | 27.98731 | -82.02058 | 147 ft | 13 kts | 92° |
| 2026-04-26 21:20 | 27.98732 | -82.01951 | 147 ft | 13 kts | 89° |
| 2026-04-26 21:20 | 27.98729 | -82.01843 | 146 ft | 15 kts | 94° |
| 2026-04-26 21:21 | 27.98724 | -82.01747 | 148 ft | 10 kts | 90° |
| 2026-04-26 21:21 | 27.98690 | -82.01685 | 150 ft | 15 kts | 140° |
| 2026-04-26 21:21 | 27.98656 | -82.01646 | 150 ft | 2 kts | 101° |
| 2026-04-26 21:21 | 27.98669 | -82.01630 | 150 ft | 2 kts | 25° |
| 2026-04-26 21:22 | 27.98679 | -82.01632 | 150 ft | 0 kts | 316° |
| 2026-04-26 21:26 | 27.98679 | -82.01633 | 150 ft | 0 kts | 316° |
| 2026-04-26 21:27 | 27.98679 | -82.01632 | 150 ft | 0 kts | 316° |
| 2026-04-26 21:27 | 27.98679 | -82.01633 | 150 ft | 0 kts | 316° |
| 2026-04-26 21:56 | 27.98685 | -82.01639 | 151 ft | 4 kts | 316° |
| 2026-04-26 21:56 | 27.98713 | -82.01666 | 150 ft | 4 kts | 335° |
| 2026-04-26 21:56 | 27.98748 | -82.01658 | 150 ft | 6 kts | 35° |
| 2026-04-26 21:57 | 27.98788 | -82.01621 | 149 ft | 10 kts | 42° |
| 2026-04-26 21:57 | 27.98827 | -82.01554 | 148 ft | 11 kts | 81° |
| 2026-04-26 21:57 | 27.98830 | -82.01457 | 147 ft | 14 kts | 90° |
| 2026-04-26 21:57 | 27.98831 | -82.01369 | 145 ft | 8 kts | 91° |
| 2026-04-26 21:58 | 27.98827 | -82.01271 | 144 ft | 14 kts | 93° |
| 2026-04-26 21:58 | 27.98822 | -82.01176 | 144 ft | 11 kts | 93° |
| 2026-04-26 21:58 | 27.98819 | -82.01101 | 144 ft | 10 kts | 93° |
| 2026-04-26 21:58 | 27.98812 | -82.00972 | 142 ft | 22 kts | 93° |
| 2026-04-26 21:59 | 27.98816 | -82.00838 | 141 ft | 15 kts | 83° |
| 2026-04-26 21:59 | 27.98836 | -82.00762 | 141 ft | 6 kts | 38° |
| 2026-04-26 21:59 | 27.98851 | -82.00759 | 142 ft | 0 kts | 349° |
| 2026-04-26 22:00 | 27.98870 | -82.00761 | 142 ft | 8 kts | 359° |
| 2026-04-26 22:00 | 27.98929 | -82.00781 | 144 ft | 7 kts | 284° |
| 2026-04-26 22:00 | 27.98930 | -82.00787 | 144 ft | 0 kts | 269° |
| 2026-04-26 22:02 | 27.98929 | -82.00867 | 145 ft | 51 kts | 270° |
| 2026-04-26 22:03 | 27.98919 | -82.01677 | 181 ft | 143 kts | 271° |
| 2026-04-26 22:03 | 27.98926 | -82.02943 | 647 ft | 172 kts | 272° |
| 2026-04-26 22:03 | 27.98962 | -82.04387 | 1194 ft | 195 kts | 272° |
| 2026-04-26 22:03 | 27.98993 | -82.05968 | 1538 ft | 207 kts | 271° |
| 2026-04-26 22:04 | 27.99013 | -82.07638 | 1786 ft | 215 kts | 271° |
| 2026-04-26 22:04 | 27.99043 | -82.09332 | 2055 ft | 216 kts | 272° |
| 2026-04-26 22:04 | 27.99058 | -82.11033 | 2343 ft | 215 kts | 270° |
| 2026-04-26 22:04 | 27.99049 | -82.12716 | 2449 ft | 214 kts | 271° |
| 2026-04-26 22:05 | 27.99027 | -82.14606 | 2004 ft | 243 kts | 270° |
| 2026-04-26 22:05 | 27.99000 | -82.16462 | 2151 ft | 230 kts | 270° |
| 2026-04-26 22:05 | 27.98978 | -82.18253 | 2212 ft | 227 kts | 270° |
| 2026-04-26 22:05 | 27.98959 | -82.20040 | 2206 ft | 227 kts | 270° |
| 2026-04-26 22:06 | 27.98972 | -82.21816 | 2203 ft | 226 kts | 278° |
| 2026-04-26 22:06 | 27.99640 | -82.23395 | 2204 ft | 227 kts | 310° |
| 2026-04-26 22:06 | 28.00822 | -82.24588 | 2208 ft | 228 kts | 317° |
| 2026-04-26 22:06 | 28.02046 | -82.25720 | 2209 ft | 228 kts | 319° |
| 2026-04-26 22:07 | 28.03370 | -82.26722 | 2203 ft | 229 kts | 327° |
| 2026-04-26 22:07 | 28.04813 | -82.27439 | 2216 ft | 233 kts | 338° |
| 2026-04-26 22:07 | 28.06395 | -82.27996 | 2208 ft | 235 kts | 340° |
| 2026-04-26 22:07 | 28.07429 | -82.28346 | 2208 ft | 233 kts | 340° |
| 2026-04-26 22:08 | 28.09516 | -82.29068 | 2200 ft | 236 kts | 340° |
| 2026-04-26 22:08 | 28.11083 | -82.29621 | 2206 ft | 236 kts | 340° |
| 2026-04-26 22:08 | 28.12640 | -82.30132 | 2203 ft | 239 kts | 348° |
| 2026-04-26 22:08 | 28.13766 | -82.30089 | 2228 ft | 243 kts | 11° |
| 2026-04-26 22:10 | 28.15199 | -82.29139 | 2220 ft | 247 kts | 44° |
| 2026-04-26 22:10 | 28.15929 | -82.27873 | 2211 ft | 250 kts | 63° |
| 2026-04-26 22:11 | 28.16329 | -82.26816 | 2219 ft | 251 kts | 67° |
| 2026-04-26 22:11 | 28.16937 | -82.24962 | 2212 ft | 241 kts | 68° |
| 2026-04-26 22:11 | 28.17459 | -82.23282 | 2191 ft | 212 kts | 69° |
| 2026-04-26 22:11 | 28.17909 | -82.21811 | 2192 ft | 185 kts | 69° |
| 2026-04-26 22:12 | 28.18321 | -82.20465 | 2212 ft | 179 kts | 68° |
| 2026-04-26 22:12 | 28.18738 | -82.19111 | 2218 ft | 182 kts | 69° |
| 2026-04-26 22:12 | 28.19150 | -82.17765 | 2211 ft | 178 kts | 68° |
| 2026-04-26 22:12 | 28.19551 | -82.16456 | 2210 ft | 178 kts | 68° |
| 2026-04-26 22:13 | 28.19958 | -82.15123 | 2220 ft | 180 kts | 67° |
| 2026-04-26 22:13 | 28.20368 | -82.13782 | 2227 ft | 179 kts | 68° |
| 2026-04-26 22:13 | 28.20773 | -82.12452 | 2208 ft | 179 kts | 68° |
| 2026-04-26 22:13 | 28.21183 | -82.11111 | 2217 ft | 180 kts | 68° |
| 2026-04-26 22:14 | 28.21596 | -82.09759 | 2216 ft | 183 kts | 68° |
| 2026-04-26 22:14 | 28.22005 | -82.08413 | 2224 ft | 179 kts | 67° |
| 2026-04-26 22:14 | 28.22407 | -82.07091 | 2214 ft | 175 kts | 69° |
| 2026-04-26 22:14 | 28.22811 | -82.05765 | 2214 ft | 178 kts | 69° |
| 2026-04-26 22:15 | 28.23220 | -82.04426 | 2211 ft | 182 kts | 69° |
| 2026-04-26 22:15 | 28.23491 | -82.03535 | 2222 ft | 181 kts | 69° |
| 2026-04-26 22:15 | 28.23897 | -82.02196 | 2211 ft | 179 kts | 69° |
| 2026-04-26 22:15 | 28.24442 | -82.00402 | 2224 ft | 182 kts | 69° |
| 2026-04-26 22:16 | 28.24715 | -81.99502 | 2212 ft | 180 kts | 69° |
| 2026-04-26 22:16 | 28.25120 | -81.98167 | 2211 ft | 180 kts | 69° |
| 2026-04-26 22:16 | 28.25521 | -81.96842 | 2207 ft | 178 kts | 69° |
| 2026-04-26 22:16 | 28.25931 | -81.95493 | 2209 ft | 181 kts | 69° |
| 2026-04-26 22:17 | 28.26339 | -81.94142 | 2202 ft | 179 kts | 68° |
| 2026-04-26 22:17 | 28.26694 | -81.92779 | 2207 ft | 180 kts | 82° |
| 2026-04-26 22:17 | 28.26485 | -81.91392 | 2213 ft | 181 kts | 120° |
| 2026-04-26 22:17 | 28.25721 | -81.90259 | 2195 ft | 181 kts | 137° |
| 2026-04-26 22:18 | 28.24809 | -81.89288 | 2201 ft | 180 kts | 141° |
| 2026-04-26 22:18 | 28.23865 | -81.88357 | 2202 ft | 182 kts | 141° |
| 2026-04-26 22:18 | 28.22908 | -81.87414 | 2202 ft | 179 kts | 140° |
| 2026-04-26 22:18 | 28.21978 | -81.86478 | 2191 ft | 179 kts | 140° |
| 2026-04-26 22:19 | 28.21055 | -81.85531 | 2206 ft | 180 kts | 140° |
| 2026-04-26 22:19 | 28.20113 | -81.84552 | 2194 ft | 182 kts | 140° |
| 2026-04-26 22:19 | 28.19201 | -81.83588 | 2190 ft | 178 kts | 140° |
| 2026-04-26 22:19 | 28.18300 | -81.82631 | 2203 ft | 177 kts | 139° |
| 2026-04-26 22:20 | 28.17392 | -81.81688 | 2190 ft | 176 kts | 146° |
| 2026-04-26 22:20 | 28.16288 | -81.81169 | 2185 ft | 172 kts | 181° |
| 2026-04-26 22:20 | 28.15137 | -81.81391 | 2212 ft | 168 kts | 204° |
| 2026-04-26 22:20 | 28.14069 | -81.81873 | 2188 ft | 164 kts | 207° |
| 2026-04-26 22:21 | 28.13016 | -81.82416 | 2184 ft | 167 kts | 209° |
| 2026-04-26 22:21 | 28.12110 | -81.83159 | 2193 ft | 157 kts | 235° |
| 2026-04-26 22:21 | 28.11520 | -81.84221 | 2207 ft | 162 kts | 245° |
| 2026-04-26 22:21 | 28.11042 | -81.85338 | 2194 ft | 155 kts | 249° |
| 2026-04-26 22:22 | 28.10597 | -81.86451 | 2196 ft | 154 kts | 249° |
| 2026-04-26 22:22 | 28.10172 | -81.87529 | 2190 ft | 145 kts | 250° |
| 2026-04-26 22:22 | 28.09761 | -81.88586 | 2201 ft | 148 kts | 249° |
| 2026-04-26 22:22 | 28.09368 | -81.89626 | 1989 ft | 142 kts | 250° |
| 2026-04-26 22:23 | 28.09004 | -81.90661 | 1931 ft | 142 kts | 252° |
| 2026-04-26 22:23 | 28.08661 | -81.91717 | 1965 ft | 144 kts | 252° |
| 2026-04-26 22:23 | 28.08316 | -81.92766 | 1781 ft | 147 kts | 252° |
| 2026-04-26 22:23 | 28.08184 | -81.93930 | 1805 ft | 154 kts | 270° |
| 2026-04-26 22:24 | 28.08175 | -81.95099 | 1636 ft | 139 kts | 273° |
| 2026-04-26 22:24 | 28.08211 | -81.96171 | 1932 ft | 135 kts | 275° |
| 2026-04-26 22:24 | 28.08083 | -81.97279 | 1955 ft | 156 kts | 245° |
| 2026-04-26 22:24 | 28.07413 | -81.98271 | 2101 ft | 153 kts | 234° |
| 2026-04-26 22:25 | 28.06716 | -81.99176 | 2074 ft | 156 kts | 234° |
| 2026-04-26 22:25 | 28.06021 | -82.00116 | 2014 ft | 147 kts | 235° |
| 2026-04-26 22:25 | 28.05397 | -82.00959 | 1785 ft | 140 kts | 228° |
| 2026-04-26 22:25 | 28.04514 | -82.01464 | 1466 ft | 151 kts | 199° |
| 2026-04-26 22:26 | 28.03488 | -82.01680 | 1303 ft | 146 kts | 193° |
| 2026-04-26 22:26 | 28.02502 | -82.01830 | 1191 ft | 141 kts | 182° |
| 2026-04-26 22:26 | 28.01614 | -82.01488 | 1116 ft | 136 kts | 172° |
| 2026-04-26 22:26 | 28.00778 | -82.00739 | 1340 ft | 180 kts | 112° |
| 2026-04-26 22:27 | 28.00440 | -81.99414 | 1331 ft | 167 kts | 109° |
| 2026-04-26 22:27 | 27.99645 | -81.98747 | 1417 ft | 142 kts | 192° |
| 2026-04-26 22:27 | 27.99077 | -81.99330 | 909 ft | 120 kts | 274° |
| 2026-04-26 22:27 | 27.98944 | -82.00266 | 319 ft | 109 kts | 272° |
| 2026-04-26 22:28 | 27.98925 | -82.01027 | 154 ft | 87 kts | 275° |
| 2026-04-26 22:28 | 27.98933 | -82.01581 | 144 ft | 49 kts | 269° |
| 2026-04-26 22:28 | 27.98926 | -82.01875 | 147 ft | 41 kts | 269° |
| 2026-04-26 22:28 | 27.98927 | -82.02138 | 144 ft | 39 kts | 271° |
| 2026-04-26 22:29 | 27.98907 | -82.02287 | 145 ft | 11 kts | 216° |
| 2026-04-26 22:29 | 27.98839 | -82.02292 | 143 ft | 6 kts | 176° |
| 2026-04-26 22:29 | 27.98791 | -82.02291 | 142 ft | 8 kts | 181° |
| 2026-04-26 22:29 | 27.98736 | -82.02278 | 141 ft | 9 kts | 122° |
| 2026-04-26 22:30 | 27.98730 | -82.02201 | 144 ft | 10 kts | 88° |
| 2026-04-26 22:30 | 27.98731 | -82.02122 | 146 ft | 11 kts | 90° |
| 2026-04-26 22:30 | 27.98732 | -82.02028 | 147 ft | 13 kts | 89° |
| 2026-04-26 22:30 | 27.98733 | -82.01918 | 147 ft | 8 kts | 91° |
| 2026-04-26 22:31 | 27.98732 | -82.01894 | 146 ft | 0 kts | 91° |
| 2026-04-26 22:31 | 27.98732 | -82.01881 | 146 ft | 8 kts | 91° |
| 2026-04-26 22:31 | 27.98730 | -82.01795 | 147 ft | 13 kts | 89° |
| 2026-04-26 22:31 | 27.98926 | -82.01262 | 146 ft | 1 kts | 274° |
| 2026-04-26 22:32 | 27.98888 | -82.01331 | 146 ft | 14 kts | 231° |
| 2026-04-26 22:32 | 27.98843 | -82.01424 | 146 ft | 12 kts | 248° |
| 2026-04-26 22:32 | 27.98842 | -82.01448 | 146 ft | 2 kts | 284° |
| 2026-04-26 22:32 | 27.98845 | -82.01456 | 146 ft | 0 kts | 299° |
| 2026-04-26 23:10 | 27.98845 | -82.01457 | 146 ft | 0 kts | 298° |